This is the latest recevied weather packets stored in our database for station/object DL6ABE-13. If no packets are shown the sender has not sent any weather packets the latest 10 day(s).
| Time | Temp. | Humidity | Pressure | Rain* | Wind** | Luminosity | Snow |
|---|---|---|---|---|---|---|---|
| 1777045647 | 21.11° C | 34% | 1015.1 hPa | - | - | - | - |
| 1777039615 | 20.56° C | 30% | 1015.8 hPa | - | - | - | - |
| 1777038413 | 20.56° C | 26% | 1016.1 hPa | - | - | - | - |
| 1777036607 | 20° C | 29% | 1016.3 hPa | - | - | - | - |
| 1777032393 | 18.89° C | 37% | 1016.9 hPa | - | - | - | - |
| 1777031189 | 18.89° C | 39% | 1016.9 hPa | - | - | - | - |
| 1777030589 | 18.33° C | 40% | 1017 hPa | - | - | - | - |
| 1777026373 | 17.22° C | 48% | 1017.6 hPa | - | - | - | - |
| 1777024566 | 16.67° C | 52% | 1017.8 hPa | - | - | - | - |
| 1777023364 | 16.11° C | 54% | 1018 hPa | - | - | - | - |
| 1777018548 | 12.78° C | 63% | 1018.3 hPa | - | - | - | - |
| 1777016741 | 11.67° C | 65% | 1018.3 hPa | - | - | - | - |
| 1777016138 | 11.11° C | 66% | 1018.3 hPa | - | - | - | - |
| 1777014333 | 10° C | 70% | 1018.5 hPa | - | - | - | - |
| 1777011926 | 7.78° C | 76% | 1018.6 hPa | - | - | - | - |
| 1777007711 | 4.44° C | 79% | 1018.6 hPa | - | - | - | - |
| 1777006507 | 4.44° C | 78% | 1018.7 hPa | - | - | - | - |
| 1777004397 | 5° C | 76% | 1018.3 hPa | - | - | - | - |
| 1776994811 | 8.33° C | 65% | 1019.2 hPa | - | - | - | - |
| 1776992962 | 7.78° C | 68% | 1019.2 hPa | - | - | - | - |
| 1776992359 | 7.78° C | 70% | 1019.4 hPa | - | - | - | - |
| 1776991757 | 7.22° C | 71% | 1019.4 hPa | - | - | - | - |
| 1776989350 | 6.67° C | 75% | 1019.6 hPa | - | - | - | - |
| 1776982126 | 9.44° C | 63% | 1019.8 hPa | - | - | - | - |
| 1776979716 | 10.56° C | 59% | 1019.6 hPa | - | - | - | - |
* Rain since midnight (hover to see other rain measurements)
** Current wind speed in m/s (hover to see current wind gust speed)